Time;durP1;ratioP1;P1;durP2;ratioP2;P2;SDS_P1;SDS_P2;PMS_P1;PMS_P2;Temp;Humidity;BMP_temperature;BMP_pressure;BME280_temperature;BME280_humidity;BME280_pressure;Samples;Min_cycle;Max_cycle;Signal;HPM_P1;HPM_P2
2022/06/03 00:00:18;;;;;;;0.00;0.00;;;11.10;99.90;;;;;;4941765;28;20055;-82
2022/06/03 00:02:53;;;;;;;0.00;0.00;;;11.00;99.90;;;;;;4862374;29;20049;-83
2022/06/03 00:05:55;;;;;;;0.03;0.03;;;11.00;99.90;;;;;;4862155;29;20053;-83
2022/06/03 00:08:33;;;;;;;0.00;0.00;;;10.90;99.90;;;;;;4863191;29;20439;-82
2022/06/03 00:11:14;;;;;;;0.00;0.00;;;10.80;99.90;;;;;;4862979;29;20144;-82
2022/06/03 00:14:09;;;;;;;0.00;0.00;;;10.80;99.90;;;;;;4862733;29;20061;-82
2022/06/03 00:16:57;;;;;;;0.00;0.00;;;10.70;99.90;;;;;;4863029;29;20051;-82
2022/06/03 00:19:59;;;;;;;0.00;0.00;;;10.70;99.90;;;;;;4862560;29;20222;-82
2022/06/03 00:22:57;;;;;;;0.00;0.00;;;10.70;99.90;;;;;;4862715;29;20144;-82
2022/06/03 00:25:45;;;;;;;0.00;0.00;;;10.70;99.90;;;;;;4859831;29;20059;-83
2022/06/03 00:28:13;;;;;;;0.00;0.00;;;10.60;99.90;;;;;;4862422;29;20099;-82
2022/06/03 00:30:46;;;;;;;0.00;0.00;;;10.60;99.90;;;;;;4862654;29;20140;-82
2022/06/03 00:33:35;;;;;;;0.00;0.00;;;10.60;99.90;;;;;;4933990;28;20109;-82
2022/06/03 00:36:32;;;;;;;0.00;0.00;;;10.50;99.90;;;;;;4941115;28;20058;-82
2022/06/03 00:39:09;;;;;;;0.00;0.00;;;10.50;99.90;;;;;;4939645;28;20059;-83
2022/06/03 00:41:57;;;;;;;0.00;0.00;;;10.50;99.90;;;;;;4973064;28;20039;-82
2022/06/03 00:44:34;;;;;;;0.00;0.00;;;10.50;99.90;;;;;;4973812;28;20460;-82
2022/06/03 00:47:23;;;;;;;0.00;0.00;;;10.50;99.90;;;;;;4973707;28;20142;-82
2022/06/03 00:50:13;;;;;;;0.00;0.00;;;10.50;99.90;;;;;;4973501;28;20138;-82
2022/06/03 00:53:05;;;;;;;0.00;0.00;;;10.40;99.90;;;;;;4973100;28;20047;-83
2022/06/03 00:55:48;;;;;;;0.00;0.00;;;10.40;99.90;;;;;;4941448;28;20059;-83
2022/06/03 00:58:23;;;;;;;0.00;0.00;;;10.40;99.90;;;;;;4973117;28;20146;-83
2022/06/03 01:00:54;;;;;;;;;;;10.40;99.90;;;;;;4973304;28;20055;-83
2022/06/03 01:03:41;;;;;;;0.00;0.00;;;10.40;99.90;;;;;;4956268;28;19926;-83
2022/06/03 01:06:21;;;;;;;0.00;0.00;;;10.30;99.90;;;;;;4972820;28;20499;-83
2022/06/03 01:08:57;;;;;;;0.08;0.08;;;10.30;99.90;;;;;;4940578;28;20597;-83
2022/06/03 01:11:43;;;;;;;0.00;0.00;;;10.30;99.90;;;;;;4940844;28;20047;-83
2022/06/03 01:14:20;;;;;;;0.00;0.00;;;10.30;99.90;;;;;;4941015;28;20495;-83
2022/06/03 01:16:59;;;;;;;0.00;0.00;;;10.30;99.90;;;;;;5028248;28;20151;-83
2022/06/03 01:19:34;;;;;;;0.00;0.00;;;10.20;99.90;;;;;;5056277;28;20041;-83
2022/06/03 01:22:22;;;;;;;0.00;0.00;;;10.20;99.90;;;;;;5039262;28;20477;-83
2022/06/03 01:25:17;;;;;;;0.00;0.00;;;10.20;99.90;;;;;;5056156;28;20095;-83
2022/06/03 01:28:04;;;;;;;0.00;0.00;;;10.20;99.90;;;;;;5001498;28;20513;-83
2022/06/03 01:30:51;;;;;;;0.30;0.25;;;10.10;99.90;;;;;;5001839;28;20191;-83
2022/06/03 01:33:26;;;;;;;0.00;0.00;;;10.10;99.90;;;;;;5018566;28;20182;-83
2022/06/03 01:36:29;;;;;;;0.00;0.00;;;10.10;99.90;;;;;;5018407;28;20045;-83
2022/06/03 01:39:29;;;;;;;0.00;0.00;;;10.00;99.90;;;;;;5002151;28;20053;-83
2022/06/03 01:42:24;;;;;;;0.00;0.00;;;10.00;99.90;;;;;;5001835;28;20045;-83
2022/06/03 01:45:19;;;;;;;0.00;0.00;;;10.00;99.90;;;;;;5001595;28;20099;-83
2022/06/03 01:48:02;;;;;;;0.00;0.00;;;9.90;99.90;;;;;;5017985;28;20041;-83
2022/06/03 01:50:57;;;;;;;0.35;0.20;;;9.90;99.90;;;;;;5017901;28;20133;-83
2022/06/03 01:53:41;;;;;;;;;;;9.90;99.90;;;;;;5018206;28;20545;-83
2022/06/03 01:56:36;;;;;;;0.00;0.00;;;9.90;99.90;;;;;;5002057;28;19972;-83
2022/06/03 01:59:20;;;;;;;0.00;0.00;;;9.80;99.90;;;;;;5017716;28;20493;-83
2022/06/03 02:02:18;;;;;;;0.00;0.00;;;9.80;99.90;;;;;;5000996;28;20060;-83
2022/06/03 02:05:12;;;;;;;0.00;0.00;;;9.80;99.90;;;;;;5033163;28;20072;-83
2022/06/03 02:07:45;;;;;;;0.17;0.17;;;9.80;99.90;;;;;;5054863;28;20044;-83
2022/06/03 02:10:29;;;;;;;0.00;0.00;;;9.70;99.90;;;;;;5038634;28;20068;-83
2022/06/03 02:13:26;;;;;;;0.00;0.00;;;9.70;99.90;;;;;;5055478;28;20044;-83
2022/06/03 02:16:27;;;;;;;0.00;0.00;;;9.70;99.90;;;;;;5038389;28;20481;-83
2022/06/03 02:19:16;;;;;;;0.00;0.00;;;9.70;99.90;;;;;;5038379;28;20112;-83
2022/06/03 02:22:01;;;;;;;1.38;0.55;;;9.70;99.90;;;;;;5000840;28;20571;-83
2022/06/03 02:24:55;;;;;;;3.30;0.10;;;9.80;99.90;;;;;;5001012;28;20053;-83
2022/06/03 02:27:39;;;;;;;0.00;0.00;;;9.70;99.90;;;;;;5001032;28;20065;-83
2022/06/03 02:30:26;;;;;;;0.00;0.00;;;9.70;99.90;;;;;;5001090;28;20045;-83
2022/06/03 02:33:15;;;;;;;0.00;0.00;;;9.70;99.90;;;;;;5017222;28;20045;-83
2022/06/03 02:35:46;;;;;;;0.10;0.00;;;9.70;99.90;;;;;;5016773;28;20433;-83
2022/06/03 02:38:15;;;;;;;0.00;0.00;;;9.70;99.90;;;;;;5017428;28;20049;-83
2022/06/03 02:41:09;;;;;;;0.00;0.00;;;9.70;99.90;;;;;;5017349;28;20133;-83
2022/06/03 02:43:53;;;;;;;0.00;0.00;;;9.70;99.90;;;;;;5000505;28;20038;-83
2022/06/03 02:46:48;;;;;;;0.20;0.00;;;9.70;99.90;;;;;;5016734;28;20049;-83
2022/06/03 02:49:32;;;;;;;0.00;0.00;;;9.70;99.90;;;;;;5000663;28;20041;-83
2022/06/03 02:52:41;;;;;;;0.00;0.00;;;9.70;99.90;;;;;;5017042;28;20057;-83
2022/06/03 02:55:31;;;;;;;0.00;0.00;;;9.70;99.90;;;;;;5000359;28;20056;-83
2022/06/03 02:58:15;;;;;;;0.30;0.10;;;9.60;99.90;;;;;;5019922;28;20061;-83
2022/06/03 03:01:11;;;;;;;0.00;0.00;;;9.70;99.90;;;;;;5037486;28;20056;-83
2022/06/03 03:03:41;;;;;;;0.00;0.00;;;9.60;99.90;;;;;;5052962;28;20056;-83
2022/06/03 03:06:10;;;;;;;0.00;0.00;;;9.70;99.90;;;;;;5053986;28;20045;-83
2022/06/03 03:09:09;;;;;;;0.00;0.00;;;9.50;99.90;;;;;;5054304;28;20139;-83
2022/06/03 03:11:57;;;;;;;0.00;0.00;;;9.60;99.90;;;;;;5037675;28;20049;-83
2022/06/03 03:14:49;;;;;;;0.00;0.00;;;9.50;99.90;;;;;;5053783;28;20041;-83
2022/06/03 03:17:42;;;;;;;0.00;0.00;;;9.50;99.90;;;;;;5036809;28;20481;-83
2022/06/03 03:20:17;;;;;;;0.00;0.00;;;9.50;99.90;;;;;;5053718;28;20045;-83
2022/06/03 03:23:16;;;;;;;0.00;0.00;;;9.50;99.90;;;;;;5053584;28;20045;-83
2022/06/03 03:25:53;;;;;;;0.00;0.00;;;9.40;99.90;;;;;;5037102;28;20385;-83
2022/06/03 03:28:49;;;;;;;0.00;0.00;;;9.50;99.90;;;;;;5037317;28;20048;-83
2022/06/03 03:31:34;;;;;;;0.00;0.00;;;9.50;99.90;;;;;;5053597;28;20045;-83
2022/06/03 03:34:27;;;;;;;0.10;0.08;;;9.50;99.90;;;;;;5053395;28;20131;-83
2022/06/03 03:37:15;;;;;;;0.00;0.00;;;9.50;99.90;;;;;;5053703;28;20056;-83
2022/06/03 03:40:18;;;;;;;0.00;0.00;;;9.40;99.90;;;;;;5052768;28;20053;-83
2022/06/03 03:42:59;;;;;;;0.00;0.00;;;9.50;99.90;;;;;;5053213;28;20040;-83
2022/06/03 03:45:43;;;;;;;0.05;0.00;;;9.50;99.90;;;;;;5036920;28;20056;-83
2022/06/03 03:48:31;;;;;;;0.00;0.00;;;9.50;99.90;;;;;;5053225;28;20045;-83
2022/06/03 03:51:05;;;;;;;0.00;0.00;;;9.50;99.90;;;;;;5052845;28;20045;-83
2022/06/03 03:54:37;;;;;;;0.00;0.00;;;9.50;99.90;;;;;;5036866;28;20052;-83
2022/06/03 03:57:11;;;;;;;0.22;0.10;;;9.50;99.90;;;;;;5015613;28;20091;-83
2022/06/03 03:59:43;;;;;;;0.00;0.00;;;9.50;99.90;;;;;;5016103;28;20049;-83
2022/06/03 04:02:59;;;;;;;0.00;0.00;;;9.60;99.90;;;;;;5015062;28;20045;-83
2022/06/03 04:05:49;;;;;;;;;;;9.60;99.90;;;;;;4919806;29;20457;-83
2022/06/03 04:08:37;;;;;;;0.00;0.00;;;9.60;99.90;;;;;;4919053;29;19923;-83
2022/06/03 04:11:11;;;;;;;0.20;0.00;;;9.60;99.90;;;;;;4918774;29;20115;-83
2022/06/03 04:13:52;;;;;;;0.00;0.00;;;9.60;99.90;;;;;;4918635;29;20506;-83
2022/06/03 04:16:28;;;;;;;0.00;0.00;;;9.70;99.90;;;;;;4919629;29;20171;-83
2022/06/03 04:19:23;;;;;;;0.00;0.00;;;9.70;99.90;;;;;;4918943;29;20489;-83
2022/06/03 04:22:04;;;;;;;0.00;0.00;;;9.80;99.90;;;;;;4919184;29;20107;-84
2022/06/03 04:24:57;;;;;;;0.00;0.00;;;9.90;99.90;;;;;;4919065;29;20055;-83
2022/06/03 04:27:41;;;;;;;0.00;0.00;;;9.90;99.90;;;;;;4931013;28;20137;-83
2022/06/03 04:30:42;;;;;;;0.00;0.00;;;9.90;99.90;;;;;;4973377;28;20046;-83
2022/06/03 04:33:08;;;;;;;0.00;0.00;;;10.00;99.90;;;;;;4941153;28;20170;-84
2022/06/03 04:35:51;;;;;;;0.00;0.00;;;10.00;99.90;;;;;;4941197;28;20523;-83
2022/06/03 04:38:35;;;;;;;0.00;0.00;;;10.10;99.90;;;;;;4973086;28;20143;-84
2022/06/03 04:41:20;;;;;;;0.00;0.00;;;10.10;99.90;;;;;;5023541;28;20057;-84
2022/06/03 04:44:08;;;;;;;0.05;0.05;;;10.20;99.90;;;;;;5051243;28;20564;-85
2022/06/03 04:46:45;;;;;;;0.00;0.00;;;10.20;99.90;;;;;;5036704;28;20432;-85
2022/06/03 04:49:48;;;;;;;0.70;0.25;;;10.30;99.90;;;;;;5052779;28;20045;-84
2022/06/03 04:52:26;;;;;;;0.00;0.00;;;10.30;99.90;;;;;;5039840;28;20481;-83
2022/06/03 04:55:11;;;;;;;0.45;0.00;;;10.40;99.90;;;;;;5056472;28;20080;-83
2022/06/03 04:57:59;;;;;;;0.22;0.22;;;10.40;99.90;;;;;;5055493;28;20056;-84
2022/06/03 05:00:30;;;;;;;0.03;0.03;;;10.50;99.90;;;;;;5039513;28;20499;-83
2022/06/03 05:03:08;;;;;;;0.00;0.00;;;10.60;99.90;;;;;;5039298;28;20045;-84
2022/06/03 05:06:11;;;;;;;0.35;0.10;;;10.60;99.90;;;;;;5056340;28;20045;-84
2022/06/03 05:09:07;;;;;;;0.00;0.00;;;10.70;99.90;;;;;;5055908;28;20045;-83
2022/06/03 05:12:10;;;;;;;0.05;0.05;;;10.70;99.90;;;;;;5056412;28;20041;-84
2022/06/03 05:15:09;;;;;;;0.10;0.10;;;10.80;99.90;;;;;;5039704;28;20083;-83
2022/06/03 05:17:53;;;;;;;0.00;0.00;;;10.90;99.90;;;;;;5055802;28;20063;-85
2022/06/03 05:20:41;;;;;;;0.00;0.00;;;10.90;99.90;;;;;;5039597;28;20057;-84
2022/06/03 05:23:21;;;;;;;0.10;0.10;;;11.00;99.90;;;;;;5055722;28;20037;-83
2022/06/03 05:26:17;;;;;;;0.00;0.00;;;11.10;99.90;;;;;;5055813;28;20037;-84
2022/06/03 05:29:05;;;;;;;0.05;0.05;;;11.20;99.90;;;;;;5056249;28;20044;-83
2022/06/03 05:31:56;;;;;;;0.10;0.00;;;11.30;99.90;;;;;;5055764;28;20045;-84
2022/06/03 05:34:43;;;;;;;0.00;0.00;;;11.40;99.90;;;;;;5055522;28;20053;-83
2022/06/03 05:37:44;;;;;;;0.00;0.00;;;11.70;99.90;;;;;;5038966;28;20067;-83
2022/06/03 05:40:09;;;;;;;0.00;0.00;;;11.90;99.90;;;;;;5055595;28;20052;-83
2022/06/03 05:42:50;;;;;;;0.75;0.10;;;12.10;99.90;;;;;;5055128;28;20418;-83
2022/06/03 05:45:37;;;;;;;0.43;0.00;;;12.20;99.90;;;;;;5038986;28;20063;-83
2022/06/03 05:48:08;;;;;;;0.10;0.00;;;12.20;99.90;;;;;;5055453;28;20049;-82
2022/06/03 05:51:16;;;;;;;1.30;0.50;;;12.30;99.90;;;;;;5055238;28;20440;-82
2022/06/03 05:54:04;;;;;;;0.00;0.00;;;12.40;99.90;;;;;;5017766;28;20096;-82
2022/06/03 05:57:08;;;;;;;0.00;0.00;;;12.60;99.90;;;;;;5017795;28;20049;-83
2022/06/03 05:59:51;;;;;;;0.30;0.00;;;12.70;99.90;;;;;;4920945;29;20504;-82
2022/06/03 06:02:44;;;;;;;0.77;0.05;;;12.70;99.90;;;;;;4935527;29;20598;-82
2022/06/03 06:05:09;;;;;;;0.00;0.00;;;12.70;99.90;;;;;;4921042;29;20122;-82
2022/06/03 06:07:52;;;;;;;0.00;0.00;;;12.80;99.90;;;;;;4920267;29;20160;-83
2022/06/03 06:10:30;;;;;;;0.00;0.00;;;12.90;99.90;;;;;;4921316;29;20054;-82
2022/06/03 06:13:32;;;;;;;0.00;0.00;;;13.00;99.90;;;;;;4921105;29;20056;-83
2022/06/03 06:16:09;;;;;;;0.00;0.00;;;13.10;99.90;;;;;;4921416;29;20048;-83
2022/06/03 06:19:07;;;;;;;0.00;0.00;;;13.20;99.90;;;;;;4920906;29;20146;-83
2022/06/03 06:21:48;;;;;;;0.00;0.00;;;13.30;99.90;;;;;;4901967;29;20056;-83
2022/06/03 06:24:19;;;;;;;2.28;0.43;;;13.40;99.90;;;;;;4901802;29;20583;-82
2022/06/03 06:26:53;;;;;;;0.00;0.00;;;13.50;99.90;;;;;;4901783;29;20064;-84
2022/06/03 06:29:35;;;;;;;0.00;0.00;;;13.50;99.90;;;;;;4901852;29;20382;-83
2022/06/03 06:32:15;;;;;;;0.50;0.20;;;13.60;99.90;;;;;;4936578;29;20054;-83
2022/06/03 06:34:55;;;;;;;0.00;0.00;;;13.70;99.90;;;;;;4920282;29;20542;-83
2022/06/03 06:37:42;;;;;;;0.57;0.10;;;13.80;99.90;;;;;;4990083;28;20523;-83
2022/06/03 06:40:31;;;;;;;0.00;0.00;;;13.90;99.90;;;;;;4997777;28;20057;-83
2022/06/03 06:43:12;;;;;;;0.00;0.00;;;13.90;99.90;;;;;;4981047;28;20469;-83
2022/06/03 06:45:59;;;;;;;9.65;0.85;;;14.10;99.90;;;;;;4997023;28;20518;-84
2022/06/03 06:49:06;;;;;;;0.00;0.00;;;14.20;99.90;;;;;;4997184;28;20049;-84
2022/06/03 06:51:54;;;;;;;0.10;0.00;;;14.30;99.90;;;;;;4939447;29;20048;-84
2022/06/03 06:54:40;;;;;;;0.55;0.20;;;14.40;99.90;;;;;;4938976;29;20502;-83
2022/06/03 06:57:29;;;;;;;0.10;0.00;;;14.50;99.90;;;;;;4945608;28;20550;-84
2022/06/03 07:00:02;;;;;;;0.73;0.17;;;14.60;99.90;;;;;;4993396;28;20104;-84
2022/06/03 07:02:41;;;;;;;8.10;1.23;;;14.60;99.90;;;;;;4959853;28;20225;-83
2022/06/03 07:05:27;;;;;;;0.00;0.00;;;14.80;99.90;;;;;;4993324;28;20050;-83
2022/06/03 07:08:04;;;;;;;0.00;0.00;;;14.90;99.90;;;;;;4977129;28;20058;-83
2022/06/03 07:10:47;;;;;;;0.40;0.28;;;15.00;99.90;;;;;;4977700;28;20434;-83
2022/06/03 07:13:47;;;;;;;0.00;0.00;;;15.10;99.90;;;;;;4977199;28;20116;-84
2022/06/03 07:19:52;;;;;;;;;;;15.40;99.90;;;;;;4993916;28;20124;-84
2022/06/03 07:22:43;;;;;;;0.00;0.00;;;15.50;99.90;;;;;;4985137;28;19921;-84
2022/06/03 07:25:26;;;;;;;0.25;0.08;;;15.60;99.90;;;;;;4957948;28;20114;-85
2022/06/03 07:28:16;;;;;;;0.00;0.00;;;15.80;99.90;;;;;;4941715;28;20074;-85
2022/06/03 07:30:51;;;;;;;0.00;0.00;;;16.00;99.90;;;;;;4956879;28;20058;-84
2022/06/03 07:33:29;;;;;;;0.00;0.00;;;16.20;99.90;;;;;;4941240;28;20054;-84
2022/06/03 07:36:06;;;;;;;0.00;0.00;;;16.30;99.90;;;;;;4942173;28;20090;-84
2022/06/03 07:38:37;;;;;;;0.00;0.00;;;16.40;99.90;;;;;;4957875;28;20046;-84
2022/06/03 07:41:36;;;;;;;0.00;0.00;;;16.60;99.90;;;;;;4958862;28;20483;-84
2022/06/03 07:44:12;;;;;;;0.00;0.00;;;16.70;99.90;;;;;;4958909;28;20496;-84
2022/06/03 07:46:41;;;;;;;0.00;0.00;;;16.80;99.90;;;;;;4959909;28;20154;-84
2022/06/03 07:49:07;;;;;;;0.00;0.00;;;16.90;99.90;;;;;;4958059;28;20059;-85
2022/06/03 07:51:43;;;;;;;0.10;0.00;;;17.10;99.90;;;;;;4959232;28;20078;-84
2022/06/03 07:54:24;;;;;;;0.00;0.00;;;17.20;99.90;;;;;;4957298;28;20042;-85
2022/06/03 07:57:01;;;;;;;0.00;0.00;;;17.30;99.90;;;;;;4957616;28;20431;-84
2022/06/03 07:59:32;;;;;;;0.05;0.00;;;17.40;99.90;;;;;;4959076;28;20047;-85
2022/06/03 08:02:05;;;;;;;0.00;0.00;;;17.50;99.90;;;;;;4988050;28;20057;-84
2022/06/03 08:04:35;;;;;;;0.00;0.00;;;17.70;99.90;;;;;;5036069;28;20113;-84
2022/06/03 08:12:37;;;;;;;0.00;0.00;;;18.00;99.90;;;;;;5073697;28;20404;-85
2022/06/03 08:15:19;;;;;;;0.08;0.00;;;18.10;99.90;;;;;;5072651;28;20492;-84
2022/06/03 08:17:46;;;;;;;0.00;0.00;;;18.20;99.90;;;;;;5073010;28;20048;-84
2022/06/03 08:20:16;;;;;;;0.00;0.00;;;18.30;99.90;;;;;;5056437;28;20049;-83
2022/06/03 08:22:44;;;;;;;0.03;0.03;;;18.50;99.90;;;;;;5055755;28;20387;-84
2022/06/03 08:25:15;;;;;;;0.00;0.00;;;18.50;99.90;;;;;;5056838;28;20052;-83
2022/06/03 08:27:42;;;;;;;0.00;0.00;;;18.60;99.90;;;;;;5077199;28;20048;-83
2022/06/03 08:30:13;;;;;;;0.68;0.25;;;18.70;99.90;;;;;;5077157;28;20048;-83
2022/06/03 08:32:44;;;;;;;0.00;0.00;;;18.80;99.70;;;;;;5077000;28;20067;-83
2022/06/03 08:35:23;;;;;;;0.00;0.00;;;18.80;98.30;;;;;;5076720;28;20496;-83
2022/06/03 08:37:58;;;;;;;0.00;0.00;;;19.00;99.00;;;;;;5076992;28;20060;-83
2022/06/03 08:40:57;;;;;;;0.00;0.00;;;19.10;99.40;;;;;;5060150;28;20420;-83
2022/06/03 08:43:55;;;;;;;0.00;0.00;;;19.20;99.40;;;;;;5076541;28;20040;-84
2022/06/03 08:46:35;;;;;;;0.00;0.00;;;19.30;99.30;;;;;;5076798;28;20131;-83
2022/06/03 08:49:08;;;;;;;0.35;0.13;;;19.40;96.90;;;;;;5060007;28;20047;-83
2022/06/03 08:51:37;;;;;;;0.10;0.10;;;19.40;96.00;;;;;;5060109;28;20051;-83
2022/06/03 08:54:20;;;;;;;0.00;0.00;;;19.40;95.20;;;;;;5076003;28;20522;-82
2022/06/03 08:56:49;;;;;;;0.00;0.00;;;19.60;95.20;;;;;;5059706;28;20060;-83
2022/06/03 08:59:21;;;;;;;1.10;0.28;;;19.70;96.40;;;;;;5075433;28;20048;-82
2022/06/03 09:01:59;;;;;;;0.00;0.00;;;19.70;96.20;;;;;;5059311;28;20060;-83
2022/06/03 09:04:35;;;;;;;0.10;0.00;;;19.70;93.90;;;;;;5075792;28;20049;-83
2022/06/03 09:07:26;;;;;;;0.00;0.00;;;19.80;94.90;;;;;;5059728;28;20041;-82
2022/06/03 09:10:15;;;;;;;0.00;0.00;;;19.90;94.00;;;;;;5075926;28;20046;-83
2022/06/03 09:12:58;;;;;;;0.00;0.00;;;20.00;94.80;;;;;;5059509;28;20067;-83
2022/06/03 09:15:27;;;;;;;0.00;0.00;;;20.10;94.60;;;;;;5075950;28;20079;-82
2022/06/03 09:18:04;;;;;;;0.00;0.00;;;20.20;92.00;;;;;;5075738;28;20078;-83
2022/06/03 09:20:54;;;;;;;0.00;0.00;;;20.30;92.80;;;;;;5075831;28;20040;-82
2022/06/03 09:23:23;;;;;;;0.00;0.00;;;20.40;93.30;;;;;;5059322;28;20102;-82
2022/06/03 09:25:58;;;;;;;0.00;0.00;;;20.50;92.70;;;;;;5059479;28;20056;-82
2022/06/03 09:28:35;;;;;;;0.00;0.00;;;20.70;92.10;;;;;;5059055;28;20052;-82
2022/06/03 09:31:07;;;;;;;0.20;0.10;;;20.80;93.10;;;;;;5059115;28;20049;-82
2022/06/03 09:33:33;;;;;;;0.00;0.00;;;20.90;90.80;;;;;;5075805;28;20119;-82
2022/06/03 09:36:05;;;;;;;1.35;0.30;;;21.10;93.10;;;;;;5058239;28;20040;-82
2022/06/03 09:38:43;;;;;;;0.32;0.10;;;21.10;90.40;;;;;;5074966;28;20047;-82
2022/06/03 09:41:10;;;;;;;0.00;0.00;;;21.20;91.10;;;;;;5059171;28;20139;-83
2022/06/03 09:43:39;;;;;;;0.00;0.00;;;21.20;85.90;;;;;;5075430;28;20059;-82
2022/06/03 09:46:11;;;;;;;0.00;0.00;;;21.40;90.20;;;;;;5075631;28;20066;-83
2022/06/03 09:48:37;;;;;;;0.00;0.00;;;21.50;87.00;;;;;;5058975;28;20048;-82
2022/06/03 09:51:19;;;;;;;0.00;0.00;;;21.60;90.90;;;;;;5075460;28;20413;-83
2022/06/03 09:53:45;;;;;;;0.00;0.00;;;21.80;91.00;;;;;;5058608;28;20093;-83
2022/06/03 09:56:37;;;;;;;0.00;0.00;;;21.90;88.70;;;;;;5075253;28;20185;-82
2022/06/03 09:59:04;;;;;;;0.00;0.00;;;21.90;84.50;;;;;;5056690;28;20057;-82
2022/06/03 10:01:30;;;;;;;0.00;0.00;;;22.00;87.50;;;;;;5058066;28;20062;-83
2022/06/03 10:04:01;;;;;;;2.20;0.45;;;22.10;84.40;;;;;;5074839;28;20492;-82
2022/06/03 10:18:01;;;;;;;0.30;0.17;;;22.60;77.00;;;;;;5037335;28;20378;-83
2022/06/03 10:20:26;;;;;;;0.00;0.00;;;22.60;77.30;;;;;;5037073;28;20068;-82
2022/06/03 10:22:52;;;;;;;0.00;0.00;;;22.70;72.90;;;;;;5020363;28;20041;-82
2022/06/03 10:25:18;;;;;;;0.00;0.00;;;22.80;72.80;;;;;;5020561;28;20045;-82
2022/06/03 10:27:47;;;;;;;0.00;0.00;;;22.80;71.40;;;;;;5037051;28;20056;-83
2022/06/03 10:30:29;;;;;;;0.00;0.00;;;22.90;77.90;;;;;;5037115;28;20049;-82
2022/06/03 10:32:55;;;;;;;0.00;0.00;;;23.10;75.40;;;;;;5028899;28;20520;-82
2022/06/03 10:35:26;;;;;;;0.00;0.00;;;23.10;72.60;;;;;;5000675;28;20093;-82
2022/06/03 10:38:01;;;;;;;0.00;0.00;;;23.20;71.50;;;;;;5017177;28;20065;-83
2022/06/03 10:40:27;;;;;;;0.00;0.00;;;23.30;75.50;;;;;;5036888;28;20080;-82
2022/06/03 10:42:55;;;;;;;0.00;0.00;;;23.40;70.70;;;;;;5054089;28;20126;-83
2022/06/03 10:45:27;;;;;;;0.00;0.00;;;23.50;72.40;;;;;;5054453;28;20174;-83
2022/06/03 10:47:52;;;;;;;0.00;0.00;;;23.60;73.20;;;;;;5053718;28;20056;-82
2022/06/03 10:50:33;;;;;;;0.00;0.00;;;23.80;69.40;;;;;;5054001;28;20041;-82
2022/06/03 11:01:54;;;;;;;0.00;0.00;;;24.20;69.80;;;;;;5053892;28;20183;-83
2022/06/03 11:04:27;;;;;;;0.00;0.00;;;24.20;67.20;;;;;;5053417;28;20049;-82
2022/06/03 11:06:55;;;;;;;0.00;0.00;;;24.20;67.10;;;;;;5054007;28;20045;-82
2022/06/03 11:09:22;;;;;;;0.00;0.00;;;24.10;67.30;;;;;;5053707;28;20139;-83
2022/06/03 11:12:05;;;;;;;0.10;0.00;;;24.10;68.90;;;;;;5053481;28;20391;-83
2022/06/03 11:14:35;;;;;;;1.98;0.35;;;24.10;66.40;;;;;;5053466;28;20500;-82
2022/06/03 11:17:16;;;;;;;0.00;0.00;;;23.90;63.40;;;;;;5053636;28;20045;-82
2022/06/03 11:19:46;;;;;;;0.00;0.00;;;24.10;67.80;;;;;;5053411;28;20445;-82
2022/06/03 11:22:11;;;;;;;0.00;0.00;;;24.30;65.90;;;;;;5054505;28;20061;-82
2022/06/03 11:24:38;;;;;;;0.00;0.00;;;24.40;66.70;;;;;;5053511;28;20041;-82
2022/06/03 11:27:08;;;;;;;0.00;0.00;;;24.00;62.30;;;;;;5053449;28;20060;-82
2022/06/03 11:29:37;;;;;;;0.00;0.00;;;24.10;64.80;;;;;;5036699;28;20090;-82
2022/06/03 11:32:05;;;;;;;0.00;0.00;;;24.10;61.50;;;;;;5053482;28;20049;-82
2022/06/03 11:34:47;;;;;;;0.05;0.00;;;24.20;64.90;;;;;;5053289;28;20048;-81
2022/06/03 11:37:22;;;;;;;0.00;0.00;;;24.40;64.80;;;;;;5036900;28;20045;-81
2022/06/03 11:40:04;;;;;;;0.00;0.00;;;24.70;67.20;;;;;;5053431;28;20044;-82
2022/06/03 11:42:42;;;;;;;0.00;0.00;;;24.70;62.30;;;;;;5036691;28;20549;-82
2022/06/03 11:45:11;;;;;;;0.10;0.00;;;24.80;63.90;;;;;;5036924;28;20510;-82
2022/06/03 11:47:57;;;;;;;0.00;0.00;;;24.90;64.80;;;;;;5036436;28;20048;-82
2022/06/03 11:50:26;;;;;;;0.00;0.00;;;24.80;63.40;;;;;;5036571;28;20048;-82
2022/06/03 11:52:54;;;;;;;0.00;0.00;;;24.90;64.10;;;;;;5053155;28;20136;-82
2022/06/03 11:55:21;;;;;;;0.00;0.00;;;25.00;63.60;;;;;;5053039;28;20400;-82
2022/06/03 11:58:02;;;;;;;0.00;0.00;;;25.10;63.70;;;;;;5036177;28;20048;-82
2022/06/03 12:00:34;;;;;;;0.10;0.00;;;25.10;63.10;;;;;;5051896;28;20515;-82
2022/06/03 12:03:31;;;;;;;0.00;0.00;;;24.90;59.40;;;;;;5052811;28;20456;-82
2022/06/03 12:06:14;;;;;;;0.00;0.00;;;25.10;62.50;;;;;;5053090;28;20053;-82
2022/06/03 12:08:41;;;;;;;0.00;0.00;;;24.90;60.40;;;;;;5036645;28;20052;-89
2022/06/03 12:14:25;;;;;;;0.00;0.00;;;25.20;60.50;;;;;;5015762;28;20394;-83
2022/06/03 12:16:58;;;;;;;;;;;25.40;61.90;;;;;;5025116;28;20037;-83
2022/06/03 12:20:16;;;;;;;0.00;0.00;;;25.40;61.40;;;;;;5024417;28;19952;-83
2022/06/03 12:22:41;;;;;;;0.00;0.00;;;25.30;59.00;;;;;;4946347;28;20047;-82
2022/06/03 12:25:35;;;;;;;0.05;0.05;;;25.10;57.80;;;;;;4947101;28;20054;-83
2022/06/03 12:28:03;;;;;;;0.20;0.20;;;25.20;60.80;;;;;;4942878;29;20547;-82
2022/06/03 12:30:44;;;;;;;0.00;0.00;;;25.40;59.20;;;;;;4937773;29;20047;-82
2022/06/03 12:33:24;;;;;;;0.00;0.00;;;25.50;60.20;;;;;;4937625;29;20055;-83
2022/06/03 12:35:54;;;;;;;0.00;0.00;;;25.60;59.90;;;;;;4942658;28;20543;-84
2022/06/03 12:38:19;;;;;;;0.00;0.00;;;25.60;60.00;;;;;;4945024;28;20086;-83
2022/06/03 12:40:54;;;;;;;0.00;0.00;;;25.60;56.90;;;;;;4946216;28;20051;-83
2022/06/03 12:43:28;;;;;;;0.00;0.00;;;25.50;56.90;;;;;;4945853;28;20095;-83
2022/06/03 12:46:03;;;;;;;0.00;0.00;;;25.60;58.50;;;;;;4943902;28;20043;-82
2022/06/03 12:48:54;;;;;;;0.00;0.00;;;25.70;57.60;;;;;;4948894;28;20055;-83
2022/06/03 12:51:29;;;;;;;0.00;0.00;;;25.70;59.70;;;;;;4957043;28;20065;-84
2022/06/03 12:54:17;;;;;;;0.00;0.00;;;25.80;56.50;;;;;;5041439;28;20045;-84
2022/06/03 12:57:18;;;;;;;0.00;0.00;;;25.90;59.60;;;;;;5060754;28;20489;-83
2022/06/03 12:59:52;;;;;;;0.00;0.00;;;25.90;58.50;;;;;;4985525;28;20092;-83
2022/06/03 13:02:21;;;;;;;0.00;0.00;;;25.70;57.00;;;;;;5017439;28;20049;-83
2022/06/03 13:05:07;;;;;;;0.00;0.00;;;25.70;58.70;;;;;;4991169;28;20151;-82
2022/06/03 13:07:58;;;;;;;0.00;0.00;;;25.60;55.30;;;;;;5007184;28;20042;-83
2022/06/03 13:10:27;;;;;;;0.00;0.00;;;25.50;54.10;;;;;;4987243;28;20404;-83
2022/06/03 13:12:54;;;;;;;0.00;0.00;;;25.60;57.50;;;;;;4998679;28;20133;-84
2022/06/03 13:15:20;;;;;;;0.00;0.00;;;25.60;58.10;;;;;;4998827;28;20532;-83
2022/06/03 13:17:58;;;;;;;0.00;0.00;;;25.60;59.40;;;;;;4999214;28;20112;-83
2022/06/03 13:20:43;;;;;;;0.00;0.00;;;25.70;56.70;;;;;;4982766;28;20136;-83
2022/06/03 13:23:34;;;;;;;0.00;0.00;;;25.70;57.60;;;;;;4999150;28;20066;-83
2022/06/03 13:26:18;;;;;;;0.00;0.00;;;25.90;59.00;;;;;;4998957;28;20050;-83
2022/06/03 13:28:45;;;;;;;0.00;0.00;;;26.00;59.20;;;;;;4998846;28;20072;-83
2022/06/03 13:31:16;;;;;;;0.00;0.00;;;26.00;57.30;;;;;;4998050;28;20060;-83
2022/06/03 13:34:08;;;;;;;0.00;0.00;;;26.10;57.30;;;;;;4982886;28;20140;-83
2022/06/03 13:36:56;;;;;;;0.00;0.00;;;26.10;57.70;;;;;;5021651;28;20524;-83
2022/06/03 13:39:28;;;;;;;0.00;0.00;;;26.10;57.50;;;;;;5055632;28;20102;-83
2022/06/03 13:45:20;;;;;;;0.13;0.13;;;26.10;58.80;;;;;;5018084;28;20056;-83
2022/06/03 13:47:50;;;;;;;0.00;0.00;;;26.00;58.90;;;;;;5018083;28;20116;-82
2022/06/03 13:50:26;;;;;;;0.00;0.00;;;26.00;56.10;;;;;;5017759;28;20056;-83
2022/06/03 13:52:59;;;;;;;0.08;0.05;;;26.00;57.90;;;;;;5017945;28;20080;-83
2022/06/03 13:55:54;;;;;;;0.00;0.00;;;26.00;54.20;;;;;;5018102;28;20081;-82
2022/06/03 13:58:42;;;;;;;;;;;26.00;59.80;;;;;;5001951;28;20053;-83
2022/06/03 14:01:23;;;;;;;0.00;0.00;;;26.00;57.10;;;;;;5017488;28;19971;-83
2022/06/03 14:04:05;;;;;;;0.03;0.00;;;25.90;57.90;;;;;;5017294;28;20045;-82
2022/06/03 14:06:45;;;;;;;0.00;0.00;;;25.80;54.60;;;;;;5017643;28;20136;-83
2022/06/03 14:09:23;;;;;;;0.00;0.00;;;25.80;57.10;;;;;;5017915;28;20042;-83
2022/06/03 14:11:56;;;;;;;6.78;0.80;;;25.90;56.80;;;;;;5017911;28;20421;-83
2022/06/03 14:14:40;;;;;;;0.25;0.10;;;25.90;56.80;;;;;;5017647;28;20037;-83
2022/06/03 14:17:20;;;;;;;0.00;0.00;;;25.90;56.80;;;;;;5018189;28;20062;-83
2022/06/03 14:19:51;;;;;;;0.00;0.00;;;25.90;56.50;;;;;;5044321;28;20110;-83
2022/06/03 14:22:31;;;;;;;0.00;0.00;;;25.70;56.20;;;;;;5055071;28;20044;-83
2022/06/03 14:25:23;;;;;;;0.00;0.00;;;25.50;57.80;;;;;;5054594;28;20049;-83
2022/06/03 14:28:09;;;;;;;0.10;0.10;;;25.60;55.80;;;;;;5054783;28;20045;-82
2022/06/03 14:31:06;;;;;;;0.00;0.00;;;25.50;56.40;;;;;;5038071;28;20052;-82
2022/06/03 14:33:40;;;;;;;0.00;0.00;;;25.50;58.70;;;;;;5054548;28;20088;-83
2022/06/03 14:36:07;;;;;;;;;;;25.60;56.60;;;;;;5038692;28;20471;-83
2022/06/03 14:38:47;;;;;;;0.00;0.00;;;25.50;57.50;;;;;;5037997;28;19920;-83